Kinkaid, Illinois
Current Conditions -  °F | °C
As of 1:52 AM on Saturday 25 Oct 2014 (Local Time) from KMDH Reporting Station
Broken Clouds Broken Clouds  
Wind Chill: 13°   Ceiling: 6500
Heat Index: 13°   Visibility: 10mi
Dew Point: 11°   Wind: 3mph
Humidity: 86%   Direction: 170°S
Pressure: 30.02"   Gusts: NA
Location:  37.8835°N, 89.4465°W
Report Text: KMDH 250652Z AUTO 17003KT 10SM BKN065 13/11 A3002 RMK AO2 SLP166 T01280106
Loading
Personal Weather Stations






























Interactive Weather Map
Tropical Storm Tracking
New forecast layout! Learn more

10-Day Weather Forecast

Advertisements
Track Severe Weather on mobile